Time;durP1;ratioP1;P1;durP2;ratioP2;P2;SDS_P1;SDS_P2;PMS_P1;PMS_P2;Temp;Humidity;BMP_temperature;BMP_pressure;BME280_temperature;BME280_humidity;BME280_pressure;Samples;Min_cycle;Max_cycle;Signal;HPM_P1;HPM_P2
2022/07/20 00:01:36;;;;;;;7.07;4.70;;;;;;;;;;4998798;28;20434;-69
2022/07/20 00:04:02;;;;;;;5.23;4.40;;;;;;;;;;4998570;28;20769;-69
2022/07/20 00:06:28;;;;;;;7.07;4.17;;;;;;;;;;5016196;28;20417;-68
2022/07/20 00:11:40;;;;;;;9.93;5.40;;;;;;;;;;4966214;28;20413;-68
2022/07/20 00:14:07;;;;;;;8.10;5.40;;;;;;;;;;5016137;28;20417;-68
2022/07/20 00:16:34;;;;;;;7.13;5.17;;;;;;;;;;5016128;28;20853;-67
2022/07/20 00:19:00;;;;;;;6.07;5.20;;;;;;;;;;5014655;28;20479;-68
2022/07/20 00:21:26;;;;;;;9.97;5.50;;;;;;;;;;4998411;28;20933;-67
2022/07/20 00:23:52;;;;;;;7.10;6.10;;;;;;;;;;5015865;28;20431;-68
2022/07/20 00:26:18;;;;;;;6.03;5.40;;;;;;;;;;5015907;28;20412;-68
2022/07/20 00:28:44;;;;;;;6.10;5.60;;;;;;;;;;5015827;28;20417;-67
2022/07/20 00:31:10;;;;;;;8.40;5.77;;;;;;;;;;5015720;28;20886;-68
2022/07/20 00:33:36;;;;;;;9.53;6.00;;;;;;;;;;5015698;28;20418;-67
2022/07/20 00:36:02;;;;;;;6.13;5.53;;;;;;;;;;5015718;28;20413;-68
2022/07/20 00:38:28;;;;;;;6.23;5.60;;;;;;;;;;5015613;28;20471;-68
2022/07/20 00:40:54;;;;;;;8.57;5.80;;;;;;;;;;5015638;28;20412;-68
2022/07/20 00:43:20;;;;;;;7.87;5.40;;;;;;;;;;5015536;28;20417;-68
2022/07/20 00:45:46;;;;;;;8.63;5.37;;;;;;;;;;5015511;28;20416;-67
2022/07/20 00:48:12;;;;;;;5.50;5.07;;;;;;;;;;5015226;28;20460;-68
2022/07/20 00:50:38;;;;;;;8.17;5.43;;;;;;;;;;5015469;28;20465;-68
2022/07/20 00:53:04;;;;;;;6.10;5.70;;;;;;;;;;5015471;28;20495;-67
2022/07/20 00:55:30;;;;;;;9.73;5.10;;;;;;;;;;5015333;28;20448;-69
2022/07/20 00:57:56;;;;;;;8.70;5.50;;;;;;;;;;5015187;28;20491;-68
2022/07/20 01:00:22;;;;;;;6.87;6.13;;;;;;;;;;5015214;28;20990;-68
2022/07/20 01:02:48;;;;;;;9.63;5.50;;;;;;;;;;5015122;28;20441;-67
2022/07/20 01:05:14;;;;;;;9.53;5.67;;;;;;;;;;5015154;28;20409;-68
2022/07/20 01:07:41;;;;;;;8.00;5.90;;;;;;;;;;5015044;28;20410;-68
2022/07/20 01:10:07;;;;;;;8.90;5.20;;;;;;;;;;5015266;28;20416;-67
2022/07/20 01:12:33;;;;;;;7.40;5.30;;;;;;;;;;5014911;28;20460;-67
2022/07/20 01:14:59;;;;;;;5.60;5.30;;;;;;;;;;5014962;28;20415;-68
2022/07/20 01:17:25;;;;;;;5.63;5.13;;;;;;;;;;5014775;28;20876;-68
2022/07/20 01:19:51;;;;;;;6.00;5.50;;;;;;;;;;5014845;28;20525;-67
2022/07/20 01:22:17;;;;;;;5.27;4.87;;;;;;;;;;5014799;28;20405;-68
2022/07/20 01:24:43;;;;;;;7.50;5.50;;;;;;;;;;5014784;28;20503;-67
2022/07/20 01:27:09;;;;;;;6.33;5.70;;;;;;;;;;5014721;28;20418;-67
2022/07/20 01:29:35;;;;;;;5.80;5.30;;;;;;;;;;5014235;28;20440;-67
2022/07/20 01:32:01;;;;;;;6.63;5.67;;;;;;;;;;5014659;28;20416;-67
2022/07/20 01:34:26;;;;;;;5.63;5.33;;;;;;;;;;5014525;28;20425;-66
2022/07/20 01:36:52;;;;;;;5.97;5.47;;;;;;;;;;5014530;28;20408;-68
2022/07/20 01:39:18;;;;;;;5.17;4.93;;;;;;;;;;5014455;28;20472;-67
2022/07/20 01:41:47;;;;;;;6.13;5.63;;;;;;;;;;5014354;28;20443;-67
2022/07/20 01:44:14;;;;;;;8.57;5.47;;;;;;;;;;5014404;28;20410;-67
2022/07/20 01:46:40;;;;;;;9.57;5.30;;;;;;;;;;5014372;28;20477;-67
2022/07/20 01:49:06;;;;;;;8.87;5.00;;;;;;;;;;5014161;28;20517;-68
2022/07/20 01:51:32;;;;;;;5.77;5.33;;;;;;;;;;5014247;28;20478;-68
2022/07/20 01:53:58;;;;;;;6.53;5.10;;;;;;;;;;5014265;28;20418;-69
2022/07/20 01:56:24;;;;;;;7.43;5.40;;;;;;;;;;5014159;28;20773;-67
2022/07/20 01:58:50;;;;;;;9.50;5.10;;;;;;;;;;5014109;28;20533;-67
2022/07/20 02:01:16;;;;;;;6.43;5.30;;;;;;;;;;5014103;28;20412;-66
2022/07/20 02:03:42;;;;;;;8.07;4.80;;;;;;;;;;5014011;28;20511;-66
2022/07/20 02:06:08;;;;;;;5.00;4.60;;;;;;;;;;5014117;28;20413;-67
2022/07/20 02:08:34;;;;;;;4.83;4.63;;;;;;;;;;5013967;28;20880;-67
2022/07/20 02:11:00;;;;;;;4.93;4.60;;;;;;;;;;5014026;28;20415;-67
2022/07/20 02:13:26;;;;;;;8.30;4.60;;;;;;;;;;5013909;28;20489;-67
2022/07/20 02:18:37;;;;;;;5.00;4.47;;;;;;;;;;5013806;28;20573;-66
2022/07/20 02:21:03;;;;;;;8.27;4.50;;;;;;;;;;5013861;28;20508;-66
2022/07/20 02:23:29;;;;;;;4.83;4.47;;;;;;;;;;5013908;28;20494;-66
2022/07/20 02:25:55;;;;;;;5.83;4.57;;;;;;;;;;5013764;28;20471;-66
2022/07/20 02:28:21;;;;;;;6.67;4.17;;;;;;;;;;5013750;28;20410;-66
2022/07/20 02:30:47;;;;;;;5.27;4.60;;;;;;;;;;5013957;28;20514;-66
2022/07/20 02:33:13;;;;;;;5.03;4.10;;;;;;;;;;5013763;28;20466;-66
2022/07/20 02:35:39;;;;;;;5.23;4.13;;;;;;;;;;5014001;28;20425;-66
2022/07/20 02:38:05;;;;;;;4.43;4.07;;;;;;;;;;5013537;28;20497;-66
2022/07/20 02:40:31;;;;;;;5.90;4.30;;;;;;;;;;5013537;28;20414;-66
2022/07/20 02:42:57;;;;;;;4.83;3.80;;;;;;;;;;4995265;28;20413;-66
2022/07/20 02:45:23;;;;;;;5.20;4.70;;;;;;;;;;5013607;28;20416;-66
2022/07/20 02:47:49;;;;;;;7.70;4.97;;;;;;;;;;5013731;28;20507;-66
2022/07/20 02:50:15;;;;;;;9.17;4.40;;;;;;;;;;5013512;28;20421;-66
2022/07/20 02:52:41;;;;;;;5.07;4.03;;;;;;;;;;5013885;28;20831;-66
2022/07/20 02:55:08;;;;;;;3.87;3.57;;;;;;;;;;5013438;28;20885;-67
2022/07/20 02:57:34;;;;;;;5.10;3.53;;;;;;;;;;5013384;28;20507;-67
2022/07/20 03:00:00;;;;;;;4.77;4.47;;;;;;;;;;5013420;28;21002;-66
2022/07/20 03:02:26;;;;;;;3.90;3.70;;;;;;;;;;4995641;28;20457;-66
2022/07/20 03:04:52;;;;;;;5.73;4.17;;;;;;;;;;4995824;28;20567;-66
2022/07/20 03:07:18;;;;;;;4.30;3.90;;;;;;;;;;5013442;28;20410;-67
2022/07/20 03:09:44;;;;;;;4.87;4.57;;;;;;;;;;5013300;28;20446;-66
2022/07/20 03:12:10;;;;;;;3.80;3.70;;;;;;;;;;5013273;28;20460;-66
2022/07/20 03:14:36;;;;;;;7.70;4.40;;;;;;;;;;5013292;28;20892;-67
2022/07/20 03:17:02;;;;;;;4.30;4.20;;;;;;;;;;5013272;28;20451;-66
2022/07/20 03:19:28;;;;;;;4.73;4.43;;;;;;;;;;4995561;28;20485;-66
2022/07/20 03:21:54;;;;;;;5.17;4.70;;;;;;;;;;5013163;28;20419;-67
2022/07/20 03:24:20;;;;;;;5.23;4.27;;;;;;;;;;5013188;28;20424;-67
2022/07/20 03:26:46;;;;;;;6.47;4.90;;;;;;;;;;5013086;28;20420;-67
2022/07/20 03:29:12;;;;;;;7.90;4.67;;;;;;;;;;5013433;28;20416;-66
2022/07/20 03:31:38;;;;;;;10.00;4.53;;;;;;;;;;5013072;28;20412;-67
2022/07/20 03:34:04;;;;;;;4.80;4.40;;;;;;;;;;4995525;28;20515;-67
2022/07/20 03:36:30;;;;;;;5.23;4.27;;;;;;;;;;5013146;28;20420;-67
2022/07/20 03:38:56;;;;;;;4.93;4.37;;;;;;;;;;5012957;28;20473;-66
2022/07/20 03:41:22;;;;;;;4.80;4.60;;;;;;;;;;5013029;28;20914;-67
2022/07/20 03:43:49;;;;;;;4.60;4.40;;;;;;;;;;5013057;28;20514;-67
2022/07/20 03:46:17;;;;;;;4.90;4.37;;;;;;;;;;5012907;28;20526;-67
2022/07/20 03:48:43;;;;;;;8.97;4.47;;;;;;;;;;5012745;28;20467;-66
2022/07/20 03:51:09;;;;;;;6.43;4.93;;;;;;;;;;5012951;28;20777;-66
2022/07/20 03:53:35;;;;;;;5.27;4.70;;;;;;;;;;5014544;28;20446;-66
2022/07/20 03:56:01;;;;;;;5.13;4.73;;;;;;;;;;5016470;28;20770;-67
2022/07/20 03:58:27;;;;;;;44.30;33.97;;;;;;;;;;5016272;28;20537;-67
2022/07/20 04:00:53;;;;;;;11.27;7.17;;;;;;;;;;5016308;28;20417;-67
2022/07/20 04:03:19;;;;;;;6.67;6.03;;;;;;;;;;5016271;28;20801;-66
2022/07/20 04:05:45;;;;;;;6.70;5.57;;;;;;;;;;5016260;28;20450;-66
2022/07/20 04:08:11;;;;;;;5.50;5.10;;;;;;;;;;5016289;28;20446;-67
2022/07/20 04:10:37;;;;;;;7.30;4.97;;;;;;;;;;5016142;28;20790;-66
2022/07/20 04:13:06;;;;;;;5.40;5.00;;;;;;;;;;5016184;28;20809;-66
2022/07/20 04:15:32;;;;;;;5.50;5.00;;;;;;;;;;5016096;28;20498;-67
2022/07/20 04:17:58;;;;;;;5.37;4.87;;;;;;;;;;5015937;28;20799;-66
2022/07/20 04:20:24;;;;;;;7.33;5.23;;;;;;;;;;5015882;28;20408;-66
2022/07/20 04:22:50;;;;;;;4.50;4.30;;;;;;;;;;4998307;28;20438;-67
2022/07/20 04:25:16;;;;;;;4.97;4.60;;;;;;;;;;5015982;28;20424;-67
2022/07/20 04:27:45;;;;;;;4.20;4.00;;;;;;;;;;5016062;28;20575;-66
2022/07/20 04:30:12;;;;;;;9.77;4.63;;;;;;;;;;5015792;28;20411;-66
2022/07/20 04:32:38;;;;;;;4.90;4.60;;;;;;;;;;5015774;28;20562;-67
2022/07/20 04:35:04;;;;;;;4.87;4.63;;;;;;;;;;5015817;28;20501;-64
2022/07/20 04:37:30;;;;;;;6.10;4.80;;;;;;;;;;5015648;28;20411;-66
2022/07/20 04:39:56;;;;;;;6.60;4.60;;;;;;;;;;5015629;28;20419;-65
2022/07/20 04:42:22;;;;;;;4.60;4.13;;;;;;;;;;5015617;28;20407;-66
2022/07/20 04:44:48;;;;;;;5.03;4.63;;;;;;;;;;5015605;28;20916;-66
2022/07/20 04:47:14;;;;;;;5.40;3.83;;;;;;;;;;5015575;28;20754;-67
2022/07/20 04:49:40;;;;;;;4.70;4.40;;;;;;;;;;5015278;28;20480;-65
2022/07/20 04:52:06;;;;;;;5.10;4.60;;;;;;;;;;5015477;28;20411;-67
2022/07/20 04:54:32;;;;;;;11.50;4.77;;;;;;;;;;5015393;28;20411;-64
2022/07/20 04:56:59;;;;;;;5.03;4.73;;;;;;;;;;5015308;28;20435;-67
2022/07/20 04:59:25;;;;;;;5.07;4.77;;;;;;;;;;5014997;28;20478;-66
2022/07/20 05:01:51;;;;;;;6.47;4.63;;;;;;;;;;5015150;28;20768;-65
2022/07/20 05:04:17;;;;;;;10.63;5.17;;;;;;;;;;5014698;28;20437;-65
2022/07/20 05:06:43;;;;;;;4.83;4.63;;;;;;;;;;4997607;28;20432;-66
2022/07/20 05:09:10;;;;;;;14.27;4.63;;;;;;;;;;5015072;28;20592;-66
2022/07/20 05:11:36;;;;;;;4.93;4.63;;;;;;;;;;5014971;28;20443;-66
2022/07/20 05:14:03;;;;;;;7.57;4.47;;;;;;;;;;4997319;28;20894;-66
2022/07/20 05:16:29;;;;;;;5.50;5.00;;;;;;;;;;5014950;28;20416;-66
2022/07/20 05:18:55;;;;;;;5.50;5.20;;;;;;;;;;5014702;28;20473;-68
2022/07/20 05:21:21;;;;;;;5.20;4.60;;;;;;;;;;5014790;28;20402;-67
2022/07/20 05:23:47;;;;;;;8.67;4.77;;;;;;;;;;5014539;28;20519;-69
2022/07/20 05:26:13;;;;;;;7.93;5.27;;;;;;;;;;5014432;28;20442;-68
2022/07/20 05:28:43;;;;;;;7.70;4.50;;;;;;;;;;4997055;28;20428;-67
2022/07/20 05:31:10;;;;;;;6.50;5.37;;;;;;;;;;4997132;28;20910;-67
2022/07/20 05:33:36;;;;;;;7.77;4.90;;;;;;;;;;5014630;28;20458;-69
2022/07/20 05:36:03;;;;;;;15.57;4.90;;;;;;;;;;5014597;28;20617;-69
2022/07/20 05:38:29;;;;;;;10.70;5.17;;;;;;;;;;5014746;28;20833;-67
2022/07/20 05:40:55;;;;;;;9.07;4.70;;;;;;;;;;5014481;28;20418;-69
2022/07/20 05:43:22;;;;;;;6.40;4.30;;;;;;;;;;5014555;28;20404;-67
2022/07/20 05:45:48;;;;;;;12.47;5.07;;;;;;;;;;5014533;28;20818;-69
2022/07/20 05:48:14;;;;;;;19.50;5.63;;;;;;;;;;5014244;28;20459;-67
2022/07/20 05:50:40;;;;;;;10.30;4.77;;;;;;;;;;5014421;28;20444;-69
2022/07/20 05:53:07;;;;;;;7.47;5.60;;;;;;;;;;5014338;28;20409;-71
2022/07/20 05:55:34;;;;;;;5.67;5.10;;;;;;;;;;5014567;28;20412;-67
2022/07/20 05:58:00;;;;;;;6.07;5.10;;;;;;;;;;5014077;28;20464;-68
2022/07/20 06:00:26;;;;;;;5.23;5.03;;;;;;;;;;5014143;28;20458;-67
2022/07/20 06:02:52;;;;;;;6.17;5.67;;;;;;;;;;5014390;28;20755;-67
2022/07/20 06:05:18;;;;;;;6.93;6.00;;;;;;;;;;4996497;28;20427;-67
2022/07/20 06:07:44;;;;;;;5.67;5.47;;;;;;;;;;5014154;28;20922;-67
2022/07/20 06:10:10;;;;;;;5.70;5.27;;;;;;;;;;5014083;28;20420;-68
2022/07/20 06:12:36;;;;;;;7.93;5.70;;;;;;;;;;5014045;28;20409;-67
2022/07/20 06:15:02;;;;;;;6.63;6.20;;;;;;;;;;5014072;28;20417;-68
2022/07/20 06:17:39;;;;;;;6.10;5.70;;;;;;;;;;4996354;28;20457;-68
2022/07/20 06:20:06;;;;;;;6.60;6.10;;;;;;;;;;5013976;28;20420;-68
2022/07/20 06:22:32;;;;;;;6.57;5.90;;;;;;;;;;5013978;28;20411;-67
2022/07/20 06:24:58;;;;;;;7.10;6.57;;;;;;;;;;5013895;28;20413;-68
2022/07/20 06:27:24;;;;;;;7.70;7.00;;;;;;;;;;5013873;28;20907;-68
2022/07/20 06:29:50;;;;;;;7.27;6.57;;;;;;;;;;5013922;28;20405;-68
2022/07/20 06:32:16;;;;;;;7.20;6.60;;;;;;;;;;5013831;28;20744;-69
2022/07/20 06:34:42;;;;;;;14.03;7.20;;;;;;;;;;5013800;28;20500;-71
2022/07/20 06:37:08;;;;;;;7.20;6.70;;;;;;;;;;5013782;28;20529;-69
2022/07/20 06:39:34;;;;;;;7.50;6.80;;;;;;;;;;5013739;28;21003;-68
2022/07/20 06:42:00;;;;;;;10.53;8.27;;;;;;;;;;5013752;28;20845;-68
2022/07/20 06:44:26;;;;;;;8.20;7.43;;;;;;;;;;5013711;28;20412;-68
2022/07/20 06:46:52;;;;;;;9.20;8.20;;;;;;;;;;5013694;28;20492;-69
2022/07/20 06:49:18;;;;;;;8.60;7.80;;;;;;;;;;5013494;28;20480;-68
2022/07/20 06:51:44;;;;;;;11.03;8.03;;;;;;;;;;5013615;28;20401;-69
2022/07/20 06:54:10;;;;;;;8.93;8.10;;;;;;;;;;5013478;28;20892;-68
2022/07/20 06:56:36;;;;;;;12.97;8.00;;;;;;;;;;5013375;28;20451;-69
2022/07/20 06:59:02;;;;;;;9.50;8.60;;;;;;;;;;5013291;28;20881;-68
2022/07/20 07:01:28;;;;;;;9.53;8.60;;;;;;;;;;5013405;28;20413;-69
2022/07/20 07:03:54;;;;;;;13.50;8.60;;;;;;;;;;5013336;28;20447;-69
2022/07/20 07:06:23;;;;;;;8.37;7.57;;;;;;;;;;5013343;28;20884;-70
2022/07/20 07:08:49;;;;;;;9.67;8.80;;;;;;;;;;5013252;28;20174;-70
2022/07/20 07:11:16;;;;;;;12.60;8.97;;;;;;;;;;5013258;28;20423;-71
2022/07/20 07:13:41;;;;;;;10.73;8.63;;;;;;;;;;5013265;28;20162;-69
2022/07/20 07:16:07;;;;;;;10.90;8.17;;;;;;;;;;5013154;28;20405;-70
2022/07/20 07:18:33;;;;;;;8.63;7.90;;;;;;;;;;5013115;28;20491;-71
2022/07/20 07:20:59;;;;;;;8.80;8.10;;;;;;;;;;5013279;28;20412;-68
2022/07/20 07:23:25;;;;;;;10.50;8.47;;;;;;;;;;4995578;28;20432;-68
2022/07/20 07:25:51;;;;;;;9.10;8.03;;;;;;;;;;4995610;28;20429;-68
2022/07/20 07:28:17;;;;;;;11.67;8.60;;;;;;;;;;5014550;28;20413;-68
2022/07/20 07:30:44;;;;;;;10.80;8.90;;;;;;;;;;5017438;28;20170;-67
2022/07/20 07:33:10;;;;;;;10.03;8.37;;;;;;;;;;5017011;28;20419;-68
2022/07/20 07:35:36;;;;;;;8.37;7.67;;;;;;;;;;5017079;28;20886;-68
2022/07/20 07:38:01;;;;;;;12.83;8.40;;;;;;;;;;5016812;28;20464;-68
2022/07/20 07:40:27;;;;;;;15.67;9.03;;;;;;;;;;5016898;28;20803;-68
2022/07/20 07:42:53;;;;;;;12.50;8.43;;;;;;;;;;5016810;28;20405;-69
2022/07/20 07:45:19;;;;;;;10.20;9.27;;;;;;;;;;5016800;28;20419;-69
2022/07/20 07:47:46;;;;;;;11.23;10.23;;;;;;;;;;5016591;28;20948;-68
2022/07/20 07:50:12;;;;;;;12.03;11.03;;;;;;;;;;5016666;28;20401;-69
2022/07/20 07:52:38;;;;;;;12.03;10.50;;;;;;;;;;5016692;28;20405;-68
2022/07/20 07:55:05;;;;;;;11.33;10.50;;;;;;;;;;5016699;28;20492;-68
2022/07/20 07:57:31;;;;;;;12.63;11.53;;;;;;;;;;5016450;28;20401;-70
2022/07/20 07:59:57;;;;;;;14.17;12.50;;;;;;;;;;5016645;28;20409;-68
2022/07/20 08:02:23;;;;;;;14.40;13.00;;;;;;;;;;5016425;28;20409;-68
2022/07/20 08:04:49;;;;;;;12.50;11.53;;;;;;;;;;5016400;28;20421;-68
2022/07/20 08:07:15;;;;;;;15.80;13.57;;;;;;;;;;5016386;28;20406;-68
2022/07/20 08:09:41;;;;;;;14.50;13.20;;;;;;;;;;4998749;28;20425;-68
2022/07/20 08:12:07;;;;;;;19.73;15.93;;;;;;;;;;5016038;28;20541;-68
2022/07/20 08:14:33;;;;;;;24.00;14.90;;;;;;;;;;5016288;28;20419;-67
2022/07/20 08:16:59;;;;;;;18.87;15.77;;;;;;;;;;5016184;28;20413;-67
2022/07/20 08:19:25;;;;;;;23.53;15.13;;;;;;;;;;5016081;28;20610;-68
2022/07/20 08:21:51;;;;;;;21.60;15.37;;;;;;;;;;5015870;28;20896;-69
2022/07/20 08:24:17;;;;;;;17.90;14.77;;;;;;;;;;5015938;28;20425;-70
2022/07/20 08:26:43;;;;;;;19.23;15.37;;;;;;;;;;5016096;28;20401;-68
2022/07/20 08:29:09;;;;;;;17.20;15.50;;;;;;;;;;5015973;28;20409;-67
2022/07/20 08:31:35;;;;;;;22.53;15.37;;;;;;;;;;5016021;28;20420;-67
2022/07/20 08:34:01;;;;;;;18.07;16.17;;;;;;;;;;5015884;28;20413;-69
2022/07/20 08:36:27;;;;;;;25.57;17.63;;;;;;;;;;5015929;28;20890;-68
2022/07/20 08:38:53;;;;;;;24.73;16.93;;;;;;;;;;5015351;28;20461;-69
2022/07/20 08:41:19;;;;;;;20.47;16.77;;;;;;;;;;5014981;28;20406;-70
2022/07/20 08:43:45;;;;;;;21.47;18.37;;;;;;;;;;5015933;28;20417;-66
2022/07/20 08:46:12;;;;;;;19.47;17.17;;;;;;;;;;5015612;28;20882;-67
2022/07/20 08:48:40;;;;;;;25.47;18.10;;;;;;;;;;4997974;28;20480;-68
2022/07/20 08:51:06;;;;;;;23.77;17.40;;;;;;;;;;4997803;28;20511;-68
2022/07/20 08:53:32;;;;;;;19.40;17.47;;;;;;;;;;5015561;28;20520;-68
2022/07/20 08:55:58;;;;;;;20.67;16.80;;;;;;;;;;5015462;28;20409;-68
2022/07/20 08:58:24;;;;;;;19.60;17.70;;;;;;;;;;5015327;28;20523;-66
2022/07/20 09:00:50;;;;;;;20.30;18.17;;;;;;;;;;5015345;28;20500;-67
2022/07/20 09:03:16;;;;;;;22.27;19.93;;;;;;;;;;5015227;28;20813;-66
2022/07/20 09:05:43;;;;;;;27.27;17.97;;;;;;;;;;5015239;28;20456;-68
2022/07/20 09:08:13;;;;;;;25.40;18.80;;;;;;;;;;5015038;28;20440;-67
2022/07/20 09:10:41;;;;;;;20.60;18.60;;;;;;;;;;5015451;28;20476;-67
2022/07/20 09:13:13;;;;;;;26.03;20.23;;;;;;;;;;5015226;28;20544;-67
2022/07/20 09:15:50;;;;;;;20.83;18.83;;;;;;;;;;5015408;28;20769;-68
2022/07/20 09:18:20;;;;;;;23.23;19.07;;;;;;;;;;5015228;28;20472;-68
2022/07/20 09:20:49;;;;;;;26.30;20.17;;;;;;;;;;5015216;28;20885;-68
2022/07/20 09:23:18;;;;;;;25.30;19.77;;;;;;;;;;5014960;28;20410;-69
2022/07/20 09:25:53;;;;;;;22.77;19.60;;;;;;;;;;4997283;28;20425;-67
2022/07/20 09:28:20;;;;;;;20.77;18.67;;;;;;;;;;5014968;28;20408;-68
2022/07/20 09:30:56;;;;;;;30.83;19.80;;;;;;;;;;5015112;28;20775;-68
2022/07/20 09:33:29;;;;;;;31.40;19.40;;;;;;;;;;5015051;28;20478;-67
2022/07/20 09:35:56;;;;;;;21.73;18.80;;;;;;;;;;5015046;28;20463;-69
2022/07/20 09:38:30;;;;;;;21.30;19.10;;;;;;;;;;5014630;28;20803;-67
2022/07/20 09:40:56;;;;;;;24.53;19.47;;;;;;;;;;5014835;28;20416;-67
2022/07/20 09:43:28;;;;;;;27.10;20.03;;;;;;;;;;5014673;28;20417;-68
2022/07/20 09:45:55;;;;;;;23.30;19.90;;;;;;;;;;5014804;28;20760;-69
2022/07/20 09:48:24;;;;;;;21.70;19.13;;;;;;;;;;5014249;28;20971;-68
2022/07/20 09:50:50;;;;;;;27.03;20.03;;;;;;;;;;5014110;28;20407;-68
2022/07/20 09:53:16;;;;;;;32.03;20.10;;;;;;;;;;4996602;28;20442;-68
2022/07/20 09:55:43;;;;;;;23.00;20.67;;;;;;;;;;5014452;28;20393;-70
2022/07/20 09:58:09;;;;;;;20.80;18.60;;;;;;;;;;4996634;28;20465;-70
2022/07/20 10:00:36;;;;;;;25.70;20.13;;;;;;;;;;5014299;28;20405;-71
2022/07/20 10:03:02;;;;;;;23.03;20.50;;;;;;;;;;5014170;28;20405;-71
2022/07/20 10:05:31;;;;;;;22.20;19.80;;;;;;;;;;5014224;28;20873;-70
2022/07/20 10:08:00;;;;;;;31.27;20.10;;;;;;;;;;5014519;28;20762;-67
2022/07/20 10:10:26;;;;;;;22.93;19.33;;;;;;;;;;5014116;28;20455;-68
2022/07/20 10:12:54;;;;;;;21.93;19.63;;;;;;;;;;5014149;28;20405;-66
2022/07/20 10:15:23;;;;;;;25.67;21.20;;;;;;;;;;5014070;28;20408;-68
2022/07/20 10:17:49;;;;;;;21.50;19.40;;;;;;;;;;5013850;28;20536;-68
2022/07/20 10:20:29;;;;;;;24.00;20.70;;;;;;;;;;5014034;28;20512;-67
2022/07/20 10:23:18;;;;;;;22.47;20.30;;;;;;;;;;5013891;28;20408;-68
2022/07/20 10:25:45;;;;;;;27.37;21.03;;;;;;;;;;5013726;28;20792;-69
2022/07/20 10:28:23;;;;;;;26.47;22.40;;;;;;;;;;5013813;28;20413;-68
2022/07/20 10:30:52;;;;;;;25.00;20.63;;;;;;;;;;5013828;28;20414;-66
2022/07/20 10:33:18;;;;;;;34.10;21.73;;;;;;;;;;5013696;28;20515;-66
2022/07/20 10:35:47;;;;;;;32.13;21.20;;;;;;;;;;5013724;28;20767;-65
2022/07/20 10:38:15;;;;;;;23.47;21.23;;;;;;;;;;5013680;28;20473;-67
2022/07/20 10:44:06;;;;;;;22.67;20.20;;;;;;;;;;5013844;28;20455;-67
2022/07/20 10:46:33;;;;;;;25.87;21.20;;;;;;;;;;4995928;28;20829;-69
2022/07/20 10:48:59;;;;;;;29.27;21.10;;;;;;;;;;5013559;28;20983;-68
2022/07/20 10:51:25;;;;;;;27.40;22.40;;;;;;;;;;5013685;28;20408;-70
2022/07/20 10:53:51;;;;;;;31.13;21.27;;;;;;;;;;5013520;28;20425;-69
2022/07/20 10:56:28;;;;;;;33.73;23.00;;;;;;;;;;5013423;28;20464;-68
2022/07/20 10:58:59;;;;;;;27.30;22.00;;;;;;;;;;5013541;28;20495;-67
2022/07/20 11:01:25;;;;;;;24.30;21.83;;;;;;;;;;5013417;28;20452;-67
2022/07/20 11:03:51;;;;;;;31.50;21.17;;;;;;;;;;5015782;28;20429;-67
2022/07/20 11:06:21;;;;;;;25.70;21.40;;;;;;;;;;5017460;28;20408;-67
2022/07/20 11:08:54;;;;;;;30.63;21.47;;;;;;;;;;5017505;28;20851;-69
2022/07/20 11:11:22;;;;;;;25.60;21.40;;;;;;;;;;5017756;28;20416;-69
2022/07/20 11:13:49;;;;;;;25.90;22.00;;;;;;;;;;5017562;28;20443;-69
2022/07/20 11:16:18;;;;;;;23.00;20.53;;;;;;;;;;5017616;28;20851;-70
2022/07/20 11:18:44;;;;;;;28.97;21.80;;;;;;;;;;5017425;28;20569;-67
2022/07/20 11:21:13;;;;;;;31.27;24.97;;;;;;;;;;5017262;28;20448;-67
2022/07/20 11:23:41;;;;;;;26.30;23.57;;;;;;;;;;5017292;28;20404;-70
2022/07/20 11:26:08;;;;;;;25.37;22.80;;;;;;;;;;4999555;28;20421;-68
2022/07/20 11:28:35;;;;;;;23.40;20.80;;;;;;;;;;5017187;28;20931;-67
2022/07/20 11:31:02;;;;;;;27.40;22.70;;;;;;;;;;4999449;28;20835;-68
2022/07/20 11:33:28;;;;;;;26.70;22.80;;;;;;;;;;5017019;28;20979;-67
2022/07/20 11:35:55;;;;;;;23.07;20.40;;;;;;;;;;5017013;28;20443;-69
2022/07/20 11:38:21;;;;;;;25.10;22.40;;;;;;;;;;5016875;28;20476;-65
2022/07/20 11:41:00;;;;;;;28.83;21.77;;;;;;;;;;5016983;28;20821;-66
2022/07/20 11:43:26;;;;;;;30.13;23.57;;;;;;;;;;5016829;28;20409;-68
2022/07/20 11:45:52;;;;;;;32.10;22.60;;;;;;;;;;5016842;28;20397;-67
2022/07/20 11:48:20;;;;;;;25.10;21.50;;;;;;;;;;5016604;28;20472;-67
2022/07/20 11:50:46;;;;;;;24.27;21.53;;;;;;;;;;5016773;28;20786;-67
2022/07/20 11:53:26;;;;;;;24.57;21.90;;;;;;;;;;5016590;28;20511;-70
2022/07/20 11:55:52;;;;;;;27.50;21.93;;;;;;;;;;4998873;28;20440;-69
2022/07/20 11:58:29;;;;;;;27.43;21.47;;;;;;;;;;5016540;28;20463;-68
2022/07/20 12:00:55;;;;;;;24.73;22.10;;;;;;;;;;5016503;28;20471;-68
2022/07/20 12:03:26;;;;;;;23.53;21.07;;;;;;;;;;5016274;28;20416;-67
2022/07/20 12:05:52;;;;;;;24.20;21.80;;;;;;;;;;5016408;28;20417;-66
2022/07/20 12:08:18;;;;;;;24.13;21.97;;;;;;;;;;5016377;28;20417;-68
2022/07/20 12:10:46;;;;;;;28.47;21.70;;;;;;;;;;5016219;28;20479;-66
2022/07/20 12:13:13;;;;;;;22.47;20.07;;;;;;;;;;4998731;28;20862;-67
2022/07/20 12:15:39;;;;;;;27.07;21.13;;;;;;;;;;5016106;28;20409;-66
2022/07/20 12:18:05;;;;;;;23.70;21.30;;;;;;;;;;5016111;28;20452;-67
2022/07/20 12:20:32;;;;;;;29.83;22.00;;;;;;;;;;5016165;28;20420;-68
2022/07/20 12:22:59;;;;;;;26.80;21.60;;;;;;;;;;5016396;28;20489;-69
2022/07/20 12:25:36;;;;;;;30.23;21.40;;;;;;;;;;5016127;28;20440;-67
2022/07/20 12:28:02;;;;;;;23.60;21.40;;;;;;;;;;5016075;28;20463;-71
2022/07/20 12:30:28;;;;;;;25.13;19.67;;;;;;;;;;5016083;28;20401;-68
2022/07/20 12:33:05;;;;;;;24.70;20.80;;;;;;;;;;5015926;28;20471;-67
2022/07/20 12:35:31;;;;;;;22.73;20.53;;;;;;;;;;5015917;28;20396;-72
2022/07/20 12:37:57;;;;;;;21.80;19.60;;;;;;;;;;5015737;28;20401;-66
2022/07/20 12:40:35;;;;;;;28.27;23.47;;;;;;;;;;5015832;28;20406;-65
2022/07/20 12:43:01;;;;;;;25.20;20.03;;;;;;;;;;5015821;28;20401;-65
2022/07/20 12:45:27;;;;;;;24.53;21.10;;;;;;;;;;5015790;28;20463;-69
2022/07/20 12:47:53;;;;;;;21.90;19.37;;;;;;;;;;5015751;28;20405;-70
2022/07/20 12:50:19;;;;;;;24.03;20.90;;;;;;;;;;5015709;28;20417;-64
2022/07/20 12:52:46;;;;;;;26.23;19.80;;;;;;;;;;5015667;28;20935;-67
2022/07/20 12:55:11;;;;;;;23.07;20.77;;;;;;;;;;5015860;28;20468;-67
2022/07/20 12:57:37;;;;;;;22.47;20.20;;;;;;;;;;5015527;28;20409;-68
2022/07/20 13:00:04;;;;;;;20.13;17.97;;;;;;;;;;5015433;28;20479;-68
2022/07/20 13:02:30;;;;;;;25.33;20.83;;;;;;;;;;5015544;28;20791;-70
2022/07/20 13:04:56;;;;;;;23.20;19.77;;;;;;;;;;5015388;28;20432;-68
2022/07/20 13:07:22;;;;;;;25.10;20.53;;;;;;;;;;5015318;28;20499;-69
2022/07/20 13:09:48;;;;;;;27.80;19.53;;;;;;;;;;5015277;28;20177;-67
2022/07/20 13:12:14;;;;;;;21.30;19.00;;;;;;;;;;5015146;28;20177;-67
2022/07/20 13:14:40;;;;;;;23.33;18.30;;;;;;;;;;5015307;28;20200;-67
2022/07/20 13:17:07;;;;;;;21.07;19.10;;;;;;;;;;4997459;28;20421;-67
2022/07/20 13:19:33;;;;;;;19.43;17.43;;;;;;;;;;5014851;28;20488;-67
2022/07/20 13:21:59;;;;;;;21.63;18.60;;;;;;;;;;5014901;28;20405;-68
2022/07/20 13:24:25;;;;;;;27.57;18.10;;;;;;;;;;5014834;28;20640;-69
2022/07/20 13:26:51;;;;;;;20.67;18.63;;;;;;;;;;4997004;28;20162;-67
2022/07/20 13:29:17;;;;;;;29.03;19.63;;;;;;;;;;5014762;28;20451;-67
2022/07/20 13:31:43;;;;;;;23.80;19.57;;;;;;;;;;5014773;28;20405;-67
2022/07/20 13:34:09;;;;;;;27.33;18.93;;;;;;;;;;5014733;28;20459;-67
2022/07/20 13:36:35;;;;;;;27.33;20.07;;;;;;;;;;5014673;28;20405;-66
2022/07/20 13:39:01;;;;;;;26.53;19.70;;;;;;;;;;5014600;28;20471;-66
2022/07/20 13:41:27;;;;;;;20.43;18.20;;;;;;;;;;5014710;28;20401;-66
2022/07/20 13:43:53;;;;;;;19.97;17.83;;;;;;;;;;5014556;28;20416;-66
2022/07/20 13:46:19;;;;;;;20.57;17.63;;;;;;;;;;5014495;28;20409;-66
2022/07/20 13:48:45;;;;;;;19.23;17.23;;;;;;;;;;5014430;28;20475;-66
2022/07/20 13:51:11;;;;;;;19.40;17.50;;;;;;;;;;5014419;28;20401;-67
2022/07/20 13:53:38;;;;;;;19.03;17.37;;;;;;;;;;5014415;28;20425;-68
2022/07/20 13:56:09;;;;;;;19.10;17.40;;;;;;;;;;5014498;28;20401;-67
2022/07/20 13:58:35;;;;;;;17.60;16.00;;;;;;;;;;5014344;28;20475;-66
2022/07/20 14:01:01;;;;;;;23.30;17.13;;;;;;;;;;5014663;28;20420;-66
2022/07/20 14:03:27;;;;;;;20.70;16.80;;;;;;;;;;5014307;28;20429;-67
2022/07/20 14:05:53;;;;;;;30.57;27.50;;;;;;;;;;5014380;28;20405;-67
2022/07/20 14:08:19;;;;;;;20.07;18.10;;;;;;;;;;5014047;28;20426;-66
2022/07/20 14:10:45;;;;;;;20.03;17.00;;;;;;;;;;5014202;28;20409;-68
2022/07/20 14:13:12;;;;;;;19.03;17.13;;;;;;;;;;5014444;28;20413;-67
2022/07/20 14:15:38;;;;;;;19.07;17.37;;;;;;;;;;5014471;28;20743;-66
2022/07/20 14:18:04;;;;;;;20.37;16.90;;;;;;;;;;5013989;28;20416;-65
2022/07/20 14:20:30;;;;;;;27.50;18.43;;;;;;;;;;5014137;28;20414;-66
2022/07/20 14:22:56;;;;;;;23.30;21.00;;;;;;;;;;5014049;28;20488;-68
2022/07/20 14:25:22;;;;;;;20.00;18.00;;;;;;;;;;5014010;28;20508;-68
2022/07/20 14:27:49;;;;;;;20.30;18.20;;;;;;;;;;4996362;28;20210;-68
2022/07/20 14:30:15;;;;;;;18.50;17.00;;;;;;;;;;4996313;28;20425;-71
2022/07/20 14:32:41;;;;;;;23.33;18.67;;;;;;;;;;5013846;28;20416;-71
2022/07/20 14:35:07;;;;;;;19.93;18.03;;;;;;;;;;5013751;28;20524;-70
2022/07/20 14:37:33;;;;;;;21.70;17.87;;;;;;;;;;5013114;28;20397;-69